Time;durP1;ratioP1;P1;durP2;ratioP2;P2;SDS_P1;SDS_P2;PMS_P1;PMS_P2;Temp;Humidity;BMP_temperature;BMP_pressure;BME280_temperature;BME280_humidity;BME280_pressure;Samples;Min_cycle;Max_cycle;Signal;HPM_P1;HPM_P2
2021/12/06 00:01:58;;;;;;;18.73;12.70;;;6.50;99.90;;;4.05;100.00;100038.88;5010201;28;20133;-83
2021/12/06 00:04:29;;;;;;;21.38;13.40;;;6.50;99.90;;;3.97;100.00;100038.81;4992099;28;20077;-83
2021/12/06 00:07:00;;;;;;;18.00;13.15;;;6.50;99.90;;;3.96;100.00;100033.59;5010221;28;20046;-83
2021/12/06 00:09:29;;;;;;;;;;;6.50;99.90;;;4.03;100.00;100040.91;5010646;28;20133;-83
2021/12/06 00:12:01;;;;;;;18.15;12.02;;;6.50;99.90;;;4.03;100.00;100040.06;5008433;28;20000;-83
2021/12/06 00:14:33;;;;;;;22.08;12.07;;;6.40;99.90;;;4.03;100.00;100042.75;5009765;28;20042;-82
2021/12/06 00:17:05;;;;;;;18.40;11.05;;;6.40;99.90;;;4.00;100.00;100040.34;5008844;28;20660;-83
2021/12/06 00:19:34;;;;;;;18.92;11.57;;;6.40;99.90;;;3.97;100.00;100035.28;5010144;28;20073;-83
2021/12/06 00:22:06;;;;;;;22.35;12.35;;;6.40;99.90;;;3.94;100.00;100030.22;5006917;28;20172;-83
2021/12/06 00:24:33;;;;;;;20.27;13.27;;;6.40;99.90;;;3.90;100.00;100035.03;5009642;28;20060;-83
2021/12/06 00:27:03;;;;;;;19.23;12.35;;;6.40;99.90;;;3.88;100.00;100032.53;5009771;28;20132;-83
2021/12/06 00:29:30;;;;;;;22.80;12.90;;;6.40;99.90;;;3.90;100.00;100041.31;5009819;28;20089;-83
2021/12/06 00:31:57;;;;;;;20.70;12.82;;;6.40;99.90;;;3.87;100.00;100040.75;5009663;28;20136;-83
2021/12/06 00:34:30;;;;;;;22.27;13.25;;;6.30;99.90;;;3.79;100.00;100048.72;4997636;28;20125;-83
2021/12/06 00:37:15;;;;;;;20.52;13.43;;;6.40;99.90;;;3.68;100.00;100057.88;4990065;28;20581;-83
2021/12/06 00:39:44;;;;;;;18.38;12.18;;;6.30;99.90;;;3.67;100.00;100053.47;4990019;28;20046;-83
2021/12/06 00:42:13;;;;;;;22.80;12.95;;;6.30;99.90;;;3.66;100.00;100060.72;4988482;28;20082;-83
2021/12/06 00:44:40;;;;;;;19.95;12.98;;;6.30;99.90;;;3.59;100.00;100056.09;4989686;28;20092;-83
2021/12/06 00:47:08;;;;;;;24.67;13.77;;;6.30;99.90;;;3.54;100.00;100051.16;4989922;28;20049;-83
2021/12/06 00:49:36;;;;;;;26.48;13.88;;;6.20;99.90;;;3.53;100.00;100055.69;4972310;28;20084;-83
2021/12/06 00:52:04;;;;;;;21.45;13.07;;;6.20;99.90;;;3.50;100.00;100061.38;4989880;28;20038;-83
2021/12/06 00:54:34;;;;;;;19.80;13.07;;;6.20;99.90;;;3.40;100.00;100059.75;4971882;28;20062;-83
2021/12/06 00:57:03;;;;;;;23.10;13.80;;;6.10;99.90;;;3.38;100.00;100064.41;4999569;28;20081;-82
2021/12/06 00:59:32;;;;;;;20.75;13.35;;;6.10;99.90;;;3.36;100.00;100063.72;5009268;28;20048;-83
2021/12/06 01:02:01;;;;;;;24.50;13.90;;;6.10;99.90;;;3.32;100.00;100060.50;5009110;28;20050;-83
2021/12/06 01:04:33;;;;;;;;;;;6.00;99.90;;;3.33;100.00;100072.91;5008047;28;20104;-83
2021/12/06 01:07:00;;;;;;;20.60;12.82;;;6.00;99.90;;;3.27;100.00;100078.91;5009205;28;20025;-83
2021/12/06 01:09:28;;;;;;;26.50;13.63;;;6.00;99.90;;;3.09;100.00;100079.69;5007624;28;20506;-83
2021/12/06 01:11:55;;;;;;;16.55;11.02;;;5.90;99.90;;;2.98;100.00;100087.91;5008964;28;20493;-83
2021/12/06 01:14:23;;;;;;;25.35;13.32;;;5.90;99.90;;;2.88;100.00;100097.88;5006696;28;20046;-83
2021/12/06 01:16:52;;;;;;;20.85;12.77;;;5.80;99.90;;;2.71;100.00;100102.16;4991281;28;20042;-83
2021/12/06 01:19:21;;;;;;;23.33;11.93;;;5.80;99.90;;;2.68;100.00;100105.94;5007874;28;20092;-83
2021/12/06 01:21:54;;;;;;;22.92;13.27;;;5.80;99.90;;;2.61;100.00;100112.91;5007511;28;20053;-83
2021/12/06 01:24:28;;;;;;;22.20;11.35;;;5.80;99.90;;;2.69;100.00;100118.41;4990908;28;20045;-83
2021/12/06 01:27:23;;;;;;;21.25;11.32;;;5.70;99.90;;;2.71;100.00;100140.59;5007379;28;20124;-83
2021/12/06 01:30:19;;;;;;;18.58;11.05;;;5.60;99.90;;;2.61;100.00;100138.91;5007470;28;20050;-83
2021/12/06 01:41:18;;;;;;;18.08;10.50;;;5.40;99.90;;;2.30;100.00;100147.97;4928346;29;20134;-83
2021/12/06 01:44:06;;;;;;;17.83;10.73;;;5.40;99.90;;;2.37;100.00;100144.72;4964795;28;20058;-82
2021/12/06 01:46:38;;;;;;;18.75;10.70;;;5.30;99.90;;;2.40;100.00;100147.09;5004049;28;20053;-83
2021/12/06 01:49:08;;;;;;;18.05;10.20;;;5.30;99.90;;;2.40;100.00;100147.97;5004182;28;20761;-83
2021/12/06 01:51:36;;;;;;;24.40;11.32;;;5.30;99.90;;;2.44;100.00;100159.28;5003969;28;20494;-83
2021/12/06 01:54:06;;;;;;;20.70;11.88;;;5.20;99.90;;;2.30;100.00;100163.22;5003667;28;20046;-83
2021/12/06 01:56:33;;;;;;;16.00;10.02;;;5.20;99.90;;;2.16;100.00;100169.84;4997211;28;20042;-83
2021/12/06 01:59:01;;;;;;;20.10;10.60;;;5.20;99.90;;;2.10;100.00;100173.09;5007232;28;20058;-83
2021/12/06 02:01:30;;;;;;;15.77;10.45;;;5.20;99.90;;;1.98;100.00;100176.88;5006994;28;20050;-83
2021/12/06 02:03:59;;;;;;;18.60;10.50;;;5.10;99.90;;;1.91;100.00;100174.75;5006931;28;20042;-83
2021/12/06 02:06:28;;;;;;;19.38;10.43;;;5.10;99.90;;;1.95;100.00;100184.22;4990542;28;20049;-83
2021/12/06 02:08:57;;;;;;;16.30;10.57;;;5.00;99.90;;;1.84;100.00;100175.44;5009782;28;20049;-83
2021/12/06 02:11:28;;;;;;;16.60;11.02;;;5.00;99.90;;;1.86;100.00;100187.72;5010817;28;20476;-83
2021/12/06 02:14:03;;;;;;;18.83;10.57;;;5.00;99.90;;;1.74;100.00;100178.09;5010879;28;20049;-83
2021/12/06 02:16:40;;;;;;;16.02;10.52;;;4.90;99.90;;;1.64;100.00;100175.38;5013152;28;20042;-83
2021/12/06 02:19:08;;;;;;;16.10;10.40;;;4.90;99.70;;;1.58;100.00;100181.28;5010635;28;20041;-83
2021/12/06 02:21:41;;;;;;;19.85;11.82;;;4.80;99.60;;;1.62;100.00;100187.19;4994136;28;20077;-83
2021/12/06 02:24:10;;;;;;;18.92;11.10;;;4.80;99.70;;;1.59;100.00;100193.69;5010363;28;20057;-83
2021/12/06 02:26:43;;;;;;;15.75;9.57;;;4.80;99.70;;;1.53;100.00;100196.91;5010559;28;20448;-83
2021/12/06 02:29:11;;;;;;;18.33;10.98;;;4.70;99.60;;;1.46;100.00;100191.22;5010379;28;20128;-83
2021/12/06 02:31:38;;;;;;;18.92;11.30;;;4.70;99.60;;;1.33;100.00;100209.34;5011706;28;20072;-83
2021/12/06 02:34:07;;;;;;;18.75;10.55;;;4.60;99.40;;;1.31;100.00;100214.00;5006855;28;20052;-83
2021/12/06 02:36:34;;;;;;;16.35;10.00;;;4.60;99.50;;;1.31;100.00;100214.00;5006964;28;20761;-83
2021/12/06 02:39:08;;;;;;;15.93;10.77;;;4.50;99.50;;;1.31;100.00;100206.84;5006960;28;20133;-83
2021/12/06 02:41:36;;;;;;;16.30;10.88;;;4.50;99.60;;;1.39;100.00;100208.84;4991997;28;20092;-83
2021/12/06 02:44:07;;;;;;;18.10;11.50;;;4.40;99.70;;;1.43;100.00;100199.56;4974039;28;20054;-83
2021/12/06 02:46:35;;;;;;;22.23;11.40;;;4.50;99.90;;;1.41;100.00;100204.19;4990558;28;20046;-83
2021/12/06 02:49:03;;;;;;;18.27;11.20;;;4.40;99.90;;;1.43;100.00;100204.03;4990471;28;20153;-83
2021/12/06 02:51:31;;;;;;;18.08;11.13;;;4.40;99.90;;;1.36;100.00;100199.22;5001480;28;20120;-83
2021/12/06 02:53:58;;;;;;;20.42;11.88;;;4.40;99.90;;;1.31;100.00;100209.50;4993580;28;20469;-83
2021/12/06 02:56:33;;;;;;;21.00;11.77;;;4.40;99.90;;;1.26;100.00;100217.09;4993436;28;20041;-83
2021/12/06 02:59:08;;;;;;;20.73;12.52;;;4.40;99.90;;;1.29;100.00;100215.97;5026500;28;20093;-83
2021/12/06 03:01:40;;;;;;;17.40;10.50;;;4.40;99.90;;;1.31;100.00;100219.38;5026262;28;20055;-83
2021/12/06 03:04:09;;;;;;;17.88;11.82;;;4.40;99.90;;;1.27;100.00;100220.63;5026064;28;20096;-83
2021/12/06 03:06:38;;;;;;;18.13;10.70;;;4.30;99.90;;;1.20;100.00;100222.13;5009328;28;20482;-82
2021/12/06 03:09:12;;;;;;;14.43;10.07;;;4.30;99.90;;;1.23;100.00;100232.59;5009596;28;20065;-83
2021/12/06 03:11:45;;;;;;;18.60;10.55;;;4.30;99.90;;;1.01;100.00;100223.72;5023718;22;20053;-90
2021/12/06 03:14:22;;;;;;;21.45;11.70;;;4.20;99.60;;;0.91;100.00;100222.78;5070092;28;20036;-89
2021/12/06 03:16:54;;;;;;;22.70;12.57;;;4.20;99.30;;;0.86;100.00;100233.03;5069264;28;20086;-89
2021/12/06 03:19:22;;;;;;;17.17;10.68;;;4.10;99.30;;;0.91;100.00;100231.66;5051717;28;20051;-88
2021/12/06 03:21:50;;;;;;;19.55;11.65;;;4.10;99.60;;;0.91;100.00;100228.97;5068909;28;20055;-89
2021/12/06 03:24:19;;;;;;;20.90;12.95;;;4.00;99.70;;;0.96;100.00;100239.31;5068741;28;20076;-89
2021/12/06 03:26:49;;;;;;;20.52;11.88;;;4.00;99.80;;;0.96;100.00;100231.28;5070493;28;20036;-90
2021/12/06 03:29:17;;;;;;;20.42;11.07;;;4.00;99.90;;;0.96;100.00;100231.28;5069079;28;20048;-89
2021/12/06 03:31:46;;;;;;;19.85;11.23;;;4.00;99.90;;;0.93;100.00;100231.53;5052420;28;20044;-89
2021/12/06 03:34:16;;;;;;;20.13;12.52;;;4.00;99.90;;;0.82;100.00;100228.91;5051958;28;20094;-88
2021/12/06 03:36:45;;;;;;;16.25;10.60;;;4.00;99.90;;;0.78;100.00;100234.53;5069017;28;20047;-89
2021/12/06 03:39:23;;;;;;;17.13;10.93;;;3.90;99.80;;;0.83;100.00;100242.16;5052188;28;20059;-88
2021/12/06 03:41:56;;;;;;;20.25;10.57;;;4.00;99.90;;;0.83;100.00;100238.66;5068742;28;20044;-90
2021/12/06 03:44:25;;;;;;;16.33;11.00;;;3.90;99.90;;;0.88;100.00;100242.66;5051677;28;20052;-89
2021/12/06 03:46:57;;;;;;;19.08;11.73;;;3.90;99.90;;;0.92;100.00;100245.91;5068887;28;20736;-90
2021/12/06 03:49:25;;;;;;;21.38;11.88;;;3.80;99.90;;;1.00;100.00;100248.78;5051948;28;20055;-89
2021/12/06 03:51:52;;;;;;;21.42;11.57;;;3.80;99.90;;;0.84;100.00;100230.50;5051887;28;20052;-89
2021/12/06 03:54:27;;;;;;;21.38;11.77;;;3.80;99.90;;;0.84;100.00;100243.00;5051522;28;20852;-89
2021/12/06 03:56:58;;;;;;;25.58;14.10;;;3.80;99.90;;;0.76;100.00;100239.16;5069773;28;20653;-89
2021/12/06 03:59:26;;;;;;;20.38;12.18;;;3.80;99.90;;;0.65;100.00;100251.72;5051795;28;20459;-89
2021/12/06 04:01:54;;;;;;;22.15;13.18;;;3.80;99.90;;;0.58;100.00;100259.44;5051912;28;20052;-89
2021/12/06 04:04:24;;;;;;;21.90;12.93;;;3.70;99.90;;;0.54;100.00;100247.28;5051434;28;20051;-90
2021/12/06 04:06:53;;;;;;;23.70;12.60;;;3.70;99.80;;;0.49;100.00;100257.50;5051796;28;20096;-89
2021/12/06 04:09:22;;;;;;;25.77;14.00;;;3.70;99.70;;;0.44;100.00;100254.34;5048400;28;20689;-89
2021/12/06 04:11:51;;;;;;;21.40;12.85;;;3.70;99.60;;;0.39;100.00;100260.94;5068217;28;20040;-89
2021/12/06 04:14:20;;;;;;;18.75;12.05;;;3.60;99.50;;;0.37;100.00;100262.91;5051340;28;20424;-89
2021/12/06 04:16:48;;;;;;;31.98;13.90;;;3.60;99.50;;;0.37;100.00;100267.41;5068349;28;20044;-89
2021/12/06 04:19:16;;;;;;;31.92;13.82;;;3.60;99.40;;;0.35;100.00;100267.53;5051379;28;20041;-89
2021/12/06 04:21:46;;;;;;;44.25;14.27;;;3.60;99.40;;;0.20;100.00;100268.78;5069211;28;20044;-88
2021/12/06 04:24:14;;;;;;;25.83;13.60;;;3.50;99.20;;;0.17;100.00;100263.66;5051081;28;20045;-90
2021/12/06 04:26:43;;;;;;;21.35;12.80;;;3.50;99.20;;;0.13;100.00;100264.88;5051261;28;20052;-89
2021/12/06 04:29:13;;;;;;;23.17;14.32;;;3.50;99.40;;;0.14;100.00;100266.59;5050960;28;20495;-88
2021/12/06 04:31:49;;;;;;;29.08;13.70;;;3.40;99.30;;;0.13;100.00;100286.28;5067601;28;20040;-89
2021/12/06 04:34:18;;;;;;;26.90;13.13;;;3.40;99.40;;;0.12;100.00;100284.59;5050740;28;20055;-89
2021/12/06 04:36:48;;;;;;;46.08;14.35;;;3.30;99.40;;;0.09;100.00;100282.16;5067637;28;20049;-88
2021/12/06 04:39:20;;;;;;;43.10;13.07;;;3.30;99.60;;;0.11;100.00;100286.41;5067655;28;20051;-88
2021/12/06 04:41:48;;;;;;;90.70;14.52;;;3.30;99.70;;;0.18;100.00;100290.31;5051028;28;20063;-89
2021/12/06 04:44:17;;;;;;;130.45;15.43;;;3.20;99.90;;;0.17;100.00;100293.09;5050698;28;20048;-89
2021/12/06 04:46:46;;;;;;;168.13;17.20;;;3.20;99.90;;;0.12;100.00;100295.31;5068763;28;20040;-90
2021/12/06 04:49:15;;;;;;;;;;;3.20;99.90;;;0.02;100.00;100295.19;5067709;28;20612;-90
2021/12/06 04:51:53;;;;;;;63.45;14.40;;;3.20;99.90;;;-0.02;100.00;100310.63;5067125;28;20403;-89
2021/12/06 04:54:26;;;;;;;60.42;13.80;;;3.20;99.90;;;-0.04;100.00;100304.56;5067216;28;20052;-89
2021/12/06 04:56:59;;;;;;;75.13;14.02;;;3.10;99.90;;;-0.05;100.00;100313.53;5050405;28;20405;-89
2021/12/06 04:59:32;;;;;;;88.15;14.77;;;3.10;99.90;;;-0.13;100.00;100315.97;5049673;28;20049;-89
2021/12/06 05:02:07;;;;;;;41.13;13.85;;;3.10;99.90;;;-0.10;100.00;100318.38;5050475;28;20148;-89
2021/12/06 05:04:39;;;;;;;62.47;14.35;;;3.10;99.90;;;-0.07;100.00;100330.69;5050155;28;20048;-89
2021/12/06 05:07:12;;;;;;;50.38;13.65;;;3.10;99.90;;;-0.08;100.00;100324.47;5067206;28;20072;-88
2021/12/06 05:09:43;;;;;;;58.63;13.55;;;3.10;99.90;;;-0.08;100.00;100329.81;5067237;28;20068;-89
2021/12/06 05:12:17;;;;;;;71.28;13.50;;;3.00;99.90;;;-0.06;100.00;100325.22;5050511;28;20041;-90
2021/12/06 05:14:46;;;;;;;66.90;12.55;;;3.00;99.90;;;-0.03;100.00;100329.47;5066842;28;20081;-86
2021/12/06 05:17:16;;;;;;;45.80;12.32;;;3.00;99.90;;;-0.05;100.00;100342.97;5067008;28;20040;-86
2021/12/06 05:19:43;;;;;;;53.00;13.27;;;3.00;99.90;;;0.01;100.00;100346.97;5068458;28;20041;-85
2021/12/06 05:22:11;;;;;;;33.95;11.80;;;3.00;99.90;;;0.04;100.00;100349.44;5068229;28;20572;-87
2021/12/06 05:24:39;;;;;;;65.88;13.40;;;2.90;99.90;;;0.01;100.00;100346.97;5066540;28;20040;-88
2021/12/06 05:27:07;;;;;;;52.45;10.95;;;2.90;99.90;;;0.08;100.00;100356.22;5066894;28;20052;-86
2021/12/06 05:29:37;;;;;;;60.92;12.07;;;2.90;99.90;;;0.07;100.00;100356.34;5066822;28;20953;-85
2021/12/06 05:32:05;;;;;;;30.20;10.30;;;2.90;99.90;;;0.10;100.00;100366.81;5068091;28;20641;-85
2021/12/06 05:34:40;;;;;;;73.10;12.15;;;2.90;99.90;;;0.12;100.00;100357.69;5036601;28;20147;-86
2021/12/06 05:37:10;;;;;;;61.35;12.13;;;2.90;99.90;;;0.17;100.00;100360.88;5048072;28;20489;-87
2021/12/06 05:39:38;;;;;;;84.20;13.83;;;2.90;99.90;;;0.23;100.00;100361.31;5030192;28;20084;-86
2021/12/06 05:42:08;;;;;;;53.83;11.98;;;2.90;99.90;;;0.27;100.00;100369.00;5047794;28;20589;-85
2021/12/06 05:44:37;;;;;;;51.15;12.02;;;2.90;99.90;;;0.29;100.00;100377.75;5047894;28;20123;-86
2021/12/06 05:47:05;;;;;;;71.65;11.68;;;2.90;99.90;;;0.29;100.00;100375.09;5067171;28;20114;-86
2021/12/06 05:49:34;;;;;;;41.45;10.75;;;2.90;99.90;;;0.27;100.00;100382.38;5067662;28;20068;-86
2021/12/06 05:52:01;;;;;;;118.80;13.07;;;2.90;99.90;;;0.24;100.00;100379.94;5067941;28;20064;-86
2021/12/06 05:54:29;;;;;;;112.88;12.15;;;3.00;99.90;;;0.19;100.00;100383.00;5067670;28;20087;-85
2021/12/06 05:56:57;;;;;;;118.15;13.90;;;3.00;99.90;;;0.11;100.00;100388.09;5067773;28;20044;-86
2021/12/06 05:59:25;;;;;;;91.25;12.95;;;3.00;99.90;;;0.10;100.00;100374.84;5067841;28;20098;-86
2021/12/06 06:01:54;;;;;;;82.18;11.93;;;3.00;99.90;;;0.18;100.00;100378.59;5067632;28;20048;-86
2021/12/06 06:04:22;;;;;;;88.78;13.07;;;2.90;99.90;;;0.16;100.00;100372.53;5049403;28;20420;-85
2021/12/06 06:06:51;;;;;;;134.23;13.18;;;2.90;99.90;;;0.25;100.00;100375.44;5049709;28;20135;-86
2021/12/06 06:09:18;;;;;;;135.20;15.30;;;2.90;99.90;;;0.18;100.00;100383.97;5067822;28;20083;-85
2021/12/06 06:11:46;;;;;;;103.85;13.82;;;2.90;99.90;;;0.09;100.00;100383.84;5067634;28;20484;-86
2021/12/06 06:14:14;;;;;;;122.50;15.48;;;3.00;99.90;;;0.05;100.00;100382.38;5067474;28;20045;-86
2021/12/06 06:16:47;;;;;;;116.82;14.38;;;3.00;99.90;;;0.02;100.00;100388.81;5067580;28;20060;-86
2021/12/06 06:19:16;;;;;;;98.45;12.82;;;3.00;99.90;;;-0.07;100.00;100382.34;5064674;28;20059;-86
2021/12/06 06:21:44;;;;;;;85.80;13.57;;;2.90;99.90;;;-0.05;100.00;100387.59;5067250;28;20040;-86
2021/12/06 06:24:13;;;;;;;89.60;13.13;;;2.90;99.90;;;-0.05;100.00;100384.91;5067607;28;20113;-88
2021/12/06 06:26:41;;;;;;;57.78;12.60;;;2.90;99.90;;;-0.10;100.00;100393.28;5067597;28;20062;-86
2021/12/06 06:29:09;;;;;;;65.15;12.18;;;2.90;99.90;;;-0.16;100.00;100395.59;5067426;28;20550;-86
2021/12/06 06:31:36;;;;;;;75.10;12.93;;;2.90;99.90;;;-0.25;100.00;100394.47;5067544;28;20137;-85
2021/12/06 06:34:04;;;;;;;57.33;12.82;;;2.80;99.90;;;-0.25;100.00;100399.81;5067188;28;20044;-85
2021/12/06 06:36:31;;;;;;;66.25;12.05;;;2.80;99.90;;;-0.29;100.00;100398.34;5067478;28;20040;-86
2021/12/06 06:38:59;;;;;;;71.40;14.02;;;2.80;99.90;;;-0.25;100.00;100399.81;5067432;28;20062;-92
2021/12/06 06:41:30;;;;;;;36.58;11.50;;;2.80;99.90;;;-0.25;100.00;100399.81;5065990;28;20372;-87
2021/12/06 06:43:57;;;;;;;;;;;2.80;99.90;;;-0.18;100.00;100397.53;5067874;28;20044;-89
2021/12/06 06:46:25;;;;;;;25.50;10.90;;;2.90;99.90;;;-0.24;100.00;100390.84;5067549;28;19931;-87
2021/12/06 06:48:56;;;;;;;29.23;10.95;;;2.70;99.90;;;-0.38;100.00;100393.72;5067520;28;20051;-87
2021/12/06 06:51:23;;;;;;;;;;;2.70;99.90;;;-0.37;100.00;100401.63;5067865;28;20143;-87
2021/12/06 06:53:51;;;;;;;54.15;11.85;;;2.70;99.90;;;-0.37;100.00;100400.78;5067306;28;20458;-87
2021/12/06 06:56:18;;;;;;;33.60;10.55;;;2.70;99.90;;;-0.34;100.00;100400.53;5070233;28;20036;-86
2021/12/06 06:58:47;;;;;;;72.43;10.70;;;2.70;99.90;;;-0.35;100.00;100401.50;5044964;28;20053;-87
2021/12/06 07:01:15;;;;;;;69.93;11.45;;;2.60;99.90;;;-0.33;100.00;100399.56;5063379;28;20047;-86
2021/12/06 07:03:42;;;;;;;144.60;14.55;;;2.60;99.90;;;-0.38;100.00;100394.59;5058219;28;20057;-86
2021/12/06 07:06:09;;;;;;;48.47;10.38;;;2.50;99.90;;;-0.38;100.00;100389.25;5050415;28;20073;-88
2021/12/06 07:08:37;;;;;;;74.45;12.68;;;2.50;99.90;;;-0.34;100.00;100384.47;5070631;28;20132;-87
2021/12/06 07:11:06;;;;;;;107.85;13.98;;;2.50;99.90;;;-0.34;100.00;100374.66;5070334;28;20050;-85
2021/12/06 07:13:38;;;;;;;43.33;13.57;;;2.50;99.90;;;-0.30;100.00;100381.47;5066042;28;20123;-87
2021/12/06 07:16:09;;;;;;;61.00;15.48;;;2.50;99.90;;;-0.29;100.00;100375.13;5067901;28;20048;-87
2021/12/06 07:18:37;;;;;;;58.78;18.23;;;2.50;99.90;;;-0.24;100.00;100374.81;5068437;28;20075;-86
2021/12/06 07:21:06;;;;;;;74.72;19.85;;;2.50;99.90;;;-0.27;100.00;100383.03;5069740;28;20045;-87
2021/12/06 07:23:38;;;;;;;54.38;15.68;;;2.50;99.90;;;-0.25;100.00;100381.09;5068496;28;20043;-87
2021/12/06 07:26:06;;;;;;;89.95;18.73;;;2.50;99.90;;;-0.33;100.00;100386.19;5052236;28;20067;-87
2021/12/06 07:28:33;;;;;;;81.07;18.88;;;2.50;99.90;;;-0.42;100.00;100388.63;5070431;28;20052;-86
2021/12/06 07:31:04;;;;;;;65.47;19.00;;;2.50;99.90;;;-0.47;100.00;100384.59;5070333;28;20097;-86
2021/12/06 07:33:33;;;;;;;49.63;17.02;;;2.40;99.90;;;-0.48;100.00;100394.41;5067651;28;20079;-86
2021/12/06 07:36:01;;;;;;;34.85;15.27;;;2.50;99.90;;;-0.44;100.00;100398.56;5068507;28;20037;-87
2021/12/06 07:38:28;;;;;;;31.88;14.50;;;2.50;99.90;;;-0.49;100.00;100395.41;5070292;28;20119;-87
2021/12/06 07:40:58;;;;;;;35.45;14.88;;;2.50;99.90;;;-0.43;100.00;100397.59;5051893;28;20440;-86
2021/12/06 07:43:25;;;;;;;47.65;15.80;;;2.50;99.90;;;-0.46;100.00;100407.66;5067737;28;20102;-86
2021/12/06 07:45:52;;;;;;;65.85;13.50;;;2.50;99.90;;;-0.44;100.00;100406.59;5069698;28;20048;-87
2021/12/06 07:48:21;;;;;;;36.42;13.57;;;2.50;99.90;;;-0.34;100.00;100411.22;5051896;28;20098;-87
2021/12/06 07:50:49;;;;;;;63.50;14.63;;;2.40;99.90;;;-0.22;100.00;100415.66;5070165;28;20036;-87
2021/12/06 07:53:18;;;;;;;151.23;13.80;;;2.40;99.90;;;-0.13;100.00;100416.75;5050339;28;20537;-86
2021/12/06 07:55:45;;;;;;;202.18;16.27;;;2.50;99.90;;;-0.11;100.00;100417.50;5069577;28;20091;-86
2021/12/06 07:58:12;;;;;;;155.98;14.40;;;2.50;99.90;;;-0.20;100.00;100413.69;5069900;28;20068;-87
2021/12/06 08:00:44;;;;;;;112.07;13.65;;;2.50;99.90;;;-0.20;100.00;100422.56;5068784;28;20088;-87
2021/12/06 08:03:11;;;;;;;115.45;13.32;;;2.50;99.90;;;-0.11;100.00;100418.34;5050951;28;20130;-87
2021/12/06 08:05:41;;;;;;;139.35;14.25;;;2.50;99.90;;;-0.09;100.00;100418.22;5067928;28;20047;-87
2021/12/06 08:08:16;;;;;;;59.22;13.20;;;2.50;99.90;;;-0.07;100.00;100425.16;5052026;28;20688;-87
2021/12/06 08:10:46;;;;;;;158.85;14.80;;;2.50;99.90;;;-0.13;100.00;100422.97;5049714;28;20075;-88
2021/12/06 08:13:16;;;;;;;111.10;13.93;;;2.50;99.90;;;-0.10;100.00;100424.53;5033080;28;20114;-88
2021/12/06 08:15:44;;;;;;;58.42;13.82;;;2.50;99.90;;;-0.07;100.00;100421.63;5064891;28;20653;-86
2021/12/06 08:18:12;;;;;;;63.50;13.48;;;2.50;99.90;;;-0.07;100.00;100419.81;5049450;28;20048;-87
2021/12/06 08:20:41;;;;;;;75.40;15.75;;;2.50;99.90;;;-0.05;100.00;100417.03;5049437;28;20045;-87
2021/12/06 08:23:09;;;;;;;111.70;17.40;;;2.50;99.90;;;-0.05;100.00;100422.38;5050709;28;20124;-86
2021/12/06 08:25:38;;;;;;;75.28;16.58;;;2.60;99.90;;;0.05;100.00;100417.16;5050976;28;20048;-85
2021/12/06 08:28:06;;;;;;;79.63;19.98;;;2.50;99.90;;;0.07;100.00;100420.56;5051340;28;20156;-90
2021/12/06 08:30:34;;;;;;;124.13;19.23;;;2.50;99.90;;;0.16;100.00;100418.00;5067737;28;20048;-86
2021/12/06 08:33:04;;;;;;;137.88;19.00;;;2.60;99.90;;;0.15;100.00;100416.31;5068630;28;20048;-89
2021/12/06 08:35:33;;;;;;;79.20;18.42;;;2.60;99.90;;;0.16;100.00;100417.16;5049432;28;20048;-85
2021/12/06 08:38:01;;;;;;;196.70;20.35;;;2.60;99.90;;;0.16;100.00;100417.16;5069010;28;20086;-85
2021/12/06 08:40:31;;;;;;;97.80;18.77;;;2.60;99.90;;;0.09;100.00;100418.63;5068992;28;20121;-85
2021/12/06 08:42:58;;;;;;;84.38;18.85;;;2.50;99.90;;;0.15;100.00;100428.84;5068533;28;20568;-86
2021/12/06 08:45:27;;;;;;;72.70;19.00;;;2.60;99.90;;;0.21;100.00;100433.72;5066572;28;20524;-85
2021/12/06 08:47:56;;;;;;;186.73;21.20;;;2.60;99.90;;;0.23;100.00;100428.22;5050685;28;20052;-86
2021/12/06 08:50:25;;;;;;;230.07;23.88;;;2.60;99.90;;;0.18;100.00;100444.66;5067365;28;20049;-88
2021/12/06 08:52:54;;;;;;;105.85;21.33;;;2.60;99.90;;;0.20;100.00;100445.41;5068442;28;20068;-86
2021/12/06 08:55:23;;;;;;;255.30;26.80;;;2.60;99.90;;;0.21;100.00;100439.09;5066499;28;20060;-86
2021/12/06 08:57:55;;;;;;;162.40;24.17;;;2.60;99.90;;;0.25;100.00;100440.53;5068730;28;20584;-86
2021/12/06 09:00:25;;;;;;;;;;;2.70;99.90;;;0.26;100.00;100442.22;5068634;28;20050;-86
2021/12/06 09:02:53;;;;;;;110.15;21.05;;;2.70;99.90;;;0.30;100.00;100449.03;5050304;28;20368;-86
2021/12/06 09:05:21;;;;;;;134.77;22.88;;;2.70;99.90;;;0.40;100.00;100449.19;5065625;28;20040;-84
2021/12/06 09:07:49;;;;;;;230.07;23.90;;;2.70;99.90;;;0.36;100.00;100445.91;5050526;28;20135;-86
2021/12/06 09:10:16;;;;;;;197.75;22.42;;;2.70;99.90;;;0.32;100.00;100447.09;5068462;28;20040;-86
2021/12/06 09:12:44;;;;;;;106.20;20.75;;;2.70;99.90;;;0.31;100.00;100450.75;5087354;22;20053;-91
2021/12/06 09:15:18;;;;;;;172.80;23.10;;;2.70;99.90;;;0.37;100.00;100452.09;5038477;28;20547;-90
2021/12/06 09:17:47;;;;;;;100.53;20.17;;;2.80;99.90;;;0.33;100.00;100447.97;5043793;28;20044;-88
2021/12/06 09:20:17;;;;;;;126.78;23.45;;;2.70;99.90;;;0.32;100.00;100439.06;5048643;28;20076;-92
2021/12/06 09:22:45;;;;;;;118.75;22.85;;;2.70;99.90;;;0.37;100.00;100434.22;5029315;28;20096;-90
2021/12/06 09:25:13;;;;;;;121.38;22.17;;;2.80;99.90;;;0.38;100.00;100424.34;5043478;28;20140;-89
2021/12/06 09:27:40;;;;;;;65.93;20.13;;;2.80;99.90;;;0.39;100.00;100432.25;5049086;28;20048;-88
2021/12/06 09:30:12;;;;;;;47.00;19.38;;;2.80;99.90;;;0.41;100.00;100429.47;5047560;28;20052;-87
2021/12/06 09:32:41;;;;;;;75.70;21.85;;;2.80;99.90;;;0.45;100.00;100425.56;5064054;28;20049;-87
2021/12/06 09:35:12;;;;;;;60.97;19.60;;;2.80;99.90;;;0.48;100.00;100425.34;5048570;28;20044;-87
2021/12/06 09:37:42;;;;;;;49.38;20.95;;;2.80;99.90;;;0.51;100.00;100424.22;5047253;28;20555;-88
2021/12/06 09:40:14;;;;;;;75.97;19.27;;;2.90;99.90;;;0.60;100.00;100422.66;5049039;28;20144;-87
2021/12/06 09:42:43;;;;;;;70.60;22.08;;;2.90;99.90;;;0.66;100.00;100419.47;5047346;28;20057;-88
2021/12/06 09:45:14;;;;;;;52.58;19.65;;;2.90;99.90;;;0.69;100.00;100417.41;5047268;28;20660;-87
2021/12/06 09:47:50;;;;;;;43.17;21.02;;;2.90;99.90;;;0.68;100.00;100423.72;5068529;28;20049;-87
2021/12/06 09:50:21;;;;;;;42.00;20.83;;;2.90;99.90;;;0.73;100.00;100418.88;5050738;28;20510;-88
2021/12/06 09:52:49;;;;;;;64.53;20.20;;;2.90;99.90;;;0.84;100.00;100419.81;5050737;28;20048;-88
2021/12/06 09:55:17;;;;;;;58.15;22.20;;;2.90;99.90;;;0.84;100.00;100426.03;5049457;28;20041;-87
2021/12/06 09:57:45;;;;;;;116.82;22.58;;;2.90;99.90;;;0.83;100.00;100421.66;5047051;28;20547;-87
2021/12/06 10:00:15;;;;;;;92.93;23.92;;;2.90;99.90;;;0.82;100.00;100424.44;5048457;28;20051;-86
2021/12/06 10:02:44;;;;;;;103.85;22.45;;;2.90;99.90;;;0.84;100.00;100425.16;5030197;28;20475;-87
2021/12/06 10:05:12;;;;;;;141.75;23.85;;;3.00;99.90;;;0.81;100.00;100431.63;5061963;28;20040;-89
2021/12/06 10:07:39;;;;;;;137.18;24.35;;;3.00;99.90;;;0.77;100.00;100424.84;5068155;28;20526;-88
2021/12/06 10:10:10;;;;;;;169.38;25.70;;;3.00;99.90;;;0.75;100.00;100430.31;5050163;28;20076;-88
2021/12/06 10:12:38;;;;;;;159.88;24.23;;;3.00;99.90;;;0.74;100.00;100425.94;5040967;28;20136;-87
2021/12/06 10:15:07;;;;;;;89.53;22.85;;;3.00;99.90;;;0.76;100.00;100418.63;5041807;28;20554;-88
2021/12/06 10:17:34;;;;;;;54.97;22.50;;;3.10;99.90;;;0.82;100.00;100427.13;5046374;28;20041;-85
2021/12/06 10:20:09;;;;;;;99.43;23.58;;;3.10;99.90;;;0.90;100.00;100424.69;5048979;28;20045;-89
2021/12/06 10:22:36;;;;;;;65.13;23.35;;;3.10;99.90;;;0.95;100.00;100423.34;5045060;28;20052;-89
2021/12/06 10:25:07;;;;;;;69.70;23.73;;;3.10;99.90;;;1.00;100.00;100409.56;5047226;28;20484;-89